Time;durP1;ratioP1;P1;durP2;ratioP2;P2;SDS_P1;SDS_P2;PMS_P1;PMS_P2;Temp;Humidity;BMP_temperature;BMP_pressure;BME280_temperature;BME280_humidity;BME280_pressure;Samples;Min_cycle;Max_cycle;Signal;HPM_P1;HPM_P2
2023/07/12 00:00:30;;;;;;;10.75;3.47;;;;;;;19.00;100.00;100718.78;5013471;28;20044;-70
2023/07/12 00:02:56;;;;;;;12.60;3.30;;;;;;;19.05;100.00;100721.34;5013663;28;20034;-68
2023/07/12 00:05:27;;;;;;;11.77;3.30;;;;;;;19.08;100.00;100716.75;5013539;28;20061;-69
2023/07/12 00:07:53;;;;;;;11.52;3.50;;;;;;;19.06;100.00;100717.72;5013384;28;20029;-65
2023/07/12 00:10:25;;;;;;;11.50;3.50;;;;;;;19.04;100.00;100711.53;5013413;28;20084;-62
2023/07/12 00:12:50;;;;;;;12.32;3.42;;;;;;;18.96;100.00;100714.44;5013574;28;20055;-64
2023/07/12 00:15:22;;;;;;;12.88;3.70;;;;;;;18.81;100.00;100724.72;5013244;28;20478;-69
2023/07/12 00:17:48;;;;;;;11.38;3.50;;;;;;;18.72;100.00;100738.38;5013373;28;20030;-70
2023/07/12 00:20:26;;;;;;;16.15;3.90;;;;;;;18.59;100.00;100753.94;5013346;28;20029;-70
2023/07/12 00:22:51;;;;;;;14.27;3.65;;;;;;;18.55;100.00;100762.13;5013280;28;20485;-68
2023/07/12 00:25:18;;;;;;;14.00;3.80;;;;;;;18.64;100.00;100764.53;5013163;28;20045;-70
2023/07/12 00:27:44;;;;;;;14.25;4.05;;;;;;;18.59;100.00;100761.97;5013105;28;20030;-70
2023/07/12 00:30:15;;;;;;;12.90;3.72;;;;;;;18.52;100.00;100764.88;5013295;28;20499;-67
2023/07/12 00:32:41;;;;;;;14.50;3.97;;;;;;;18.34;100.00;100774.34;5012949;28;20042;-69
2023/07/12 00:35:06;;;;;;;14.43;4.00;;;;;;;18.24;100.00;100771.06;5013043;28;20393;-69
2023/07/12 00:37:32;;;;;;;12.45;4.00;;;;;;;18.07;100.00;100776.88;5013211;28;20033;-69
2023/07/12 00:39:57;;;;;;;14.60;4.40;;;;;;;17.96;100.00;100790.53;5012872;28;20362;-68
2023/07/12 00:42:31;;;;;;;15.13;4.40;;;;;;;17.88;100.00;100788.06;5012726;28;20046;-69
2023/07/12 00:44:57;;;;;;;14.98;4.05;;;;;;;17.86;100.00;100791.69;5013094;28;20029;-70
2023/07/12 00:47:23;;;;;;;15.75;4.30;;;;;;;17.87;100.00;100785.44;5012780;28;20045;-69
2023/07/12 00:49:48;;;;;;;14.40;4.15;;;;;;;17.98;100.00;100793.19;5012851;28;20022;-69
2023/07/12 00:52:17;;;;;;;14.93;4.25;;;;;;;17.93;100.00;100790.63;5012881;28;20042;-69
2023/07/12 00:54:58;;;;;;;15.40;4.40;;;;;;;17.97;100.00;100803.00;5012760;28;20022;-69
2023/07/12 00:57:27;;;;;;;14.73;4.35;;;;;;;18.03;100.00;100810.00;5016441;28;20101;-69
2023/07/12 00:59:58;;;;;;;17.77;4.15;;;;;;;18.17;100.00;100802.44;5017018;28;20164;-70
2023/07/12 01:02:24;;;;;;;15.38;4.10;;;;;;;18.03;100.00;100804.66;5016925;28;20026;-69
2023/07/12 01:04:53;;;;;;;15.77;4.38;;;;;;;17.96;100.00;100817.28;5016964;28;20084;-69
2023/07/12 01:07:20;;;;;;;16.52;4.50;;;;;;;18.00;100.00;100828.75;5016639;28;20373;-70
2023/07/12 01:09:46;;;;;;;16.52;4.30;;;;;;;17.92;100.00;100820.97;5016915;28;20026;-70
2023/07/12 01:12:13;;;;;;;17.63;4.60;;;;;;;17.88;100.00;100840.63;5016696;28;20040;-69
2023/07/12 01:14:41;;;;;;;14.65;4.40;;;;;;;17.84;100.00;100834.50;5016608;28;20041;-70
2023/07/12 01:17:07;;;;;;;15.80;4.50;;;;;;;17.90;100.00;100770.19;5016777;28;20026;-67
2023/07/12 01:19:37;;;;;;;16.95;4.45;;;;;;;17.86;100.00;100778.31;5016411;28;20034;-68
2023/07/12 01:22:04;;;;;;;16.30;4.60;;;;;;;17.84;100.00;100791.72;5016466;28;20030;-68
2023/07/12 01:24:31;;;;;;;15.70;4.32;;;;;;;17.81;100.00;100770.44;5016908;28;20384;-68
2023/07/12 01:27:00;;;;;;;15.15;4.22;;;;;;;17.62;100.00;100786.06;5016848;28;20449;-70
2023/07/12 01:29:26;;;;;;;16.63;4.65;;;;;;;17.38;100.00;100793.78;5016326;28;20030;-65
2023/07/12 01:31:53;;;;;;;19.17;5.25;;;;;;;16.93;100.00;100801.97;5016119;28;20485;-71
2023/07/12 01:34:19;;;;;;;16.38;4.90;;;;;;;16.67;100.00;100800.72;5016454;28;20037;-72
2023/07/12 01:36:45;;;;;;;16.55;4.90;;;;;;;16.34;100.00;100771.19;5016268;28;20121;-72
2023/07/12 01:39:11;;;;;;;18.20;5.32;;;;;;;16.14;100.00;100786.72;5016059;28;20038;-69
2023/07/12 01:41:37;;;;;;;18.27;5.50;;;;;;;15.80;100.00;100806.88;5016401;28;20036;-63
2023/07/12 01:44:03;;;;;;;19.10;5.75;;;;;;;15.60;100.00;100807.19;5015953;28;20024;-68
2023/07/12 01:46:29;;;;;;;18.60;5.65;;;;;;;15.71;100.00;100780.34;5016503;28;20034;-70
2023/07/12 01:48:54;;;;;;;19.02;5.40;;;;;;;15.70;100.00;100767.94;4998319;28;20026;-70
2023/07/12 01:51:21;;;;;;;18.55;5.80;;;;;;;15.72;100.00;100760.78;5015827;28;20033;-72
2023/07/12 01:53:47;;;;;;;20.35;6.03;;;;;;;15.67;100.00;100765.34;5016365;28;20420;-71
2023/07/12 01:56:15;;;;;;;19.38;6.00;;;;;;;15.62;100.00;100781.38;5015819;28;20030;-69
2023/07/12 01:58:40;;;;;;;19.65;6.30;;;;;;;15.53;100.00;100773.56;5015754;28;20034;-72
2023/07/12 02:01:05;;;;;;;18.90;6.05;;;;;;;15.52;100.00;100787.78;5016017;28;20037;-70
2023/07/12 02:03:31;;;;;;;18.67;5.65;;;;;;;15.45;100.00;100788.78;5015714;28;20026;-73
2023/07/12 02:05:57;;;;;;;18.45;6.20;;;;;;;15.46;100.00;100782.56;5015604;28;20477;-72
2023/07/12 02:08:23;;;;;;;19.48;6.68;;;;;;;15.62;100.00;100784.03;5014760;28;20116;-73
2023/07/12 02:10:48;;;;;;;20.38;6.85;;;;;;;15.61;100.00;100771.66;5015578;28;20113;-74
2023/07/12 02:13:14;;;;;;;19.60;7.15;;;;;;;15.65;100.00;100749.38;5015540;28;20029;-73
2023/07/12 02:15:40;;;;;;;20.27;6.63;;;;;;;15.47;100.00;100798.50;5015724;28;20029;-71
2023/07/12 02:18:06;;;;;;;18.02;6.55;;;;;;;15.47;100.00;100830.47;5015431;28;20144;-73
2023/07/12 02:20:32;;;;;;;20.13;6.60;;;;;;;15.34;100.00;100845.78;5015536;28;20092;-67
2023/07/12 02:22:57;;;;;;;19.25;6.70;;;;;;;15.25;100.00;100853.03;5015524;28;20034;-73
2023/07/12 02:25:23;;;;;;;20.08;7.15;;;;;;;15.28;100.00;100863.66;5015352;28;20026;-67
2023/07/12 02:27:49;;;;;;;19.45;6.70;;;;;;;15.13;100.00;100864.72;5015347;28;20544;-67
2023/07/12 02:30:23;;;;;;;20.08;7.20;;;;;;;15.10;100.00;100849.69;5015413;28;20030;-67
2023/07/12 02:32:49;;;;;;;21.42;7.38;;;;;;;15.14;100.00;100818.56;5015147;28;20115;-67
2023/07/12 02:35:15;;;;;;;19.65;6.43;;;;;;;15.05;100.00;100832.03;5015125;28;20109;-67
2023/07/12 02:37:41;;;;;;;18.52;6.20;;;;;;;14.96;100.00;100838.34;5015323;28;20041;-66
2023/07/12 02:40:08;;;;;;;18.88;6.30;;;;;;;14.99;100.00;100838.31;5014893;28;20041;-68
2023/07/12 02:42:34;;;;;;;21.65;7.03;;;;;;;15.08;100.00;100840.84;5014971;28;20144;-67
2023/07/12 02:44:59;;;;;;;19.83;7.10;;;;;;;14.97;100.00;100858.75;5015092;28;20030;-68
2023/07/12 02:47:25;;;;;;;19.20;6.68;;;;;;;14.93;100.00;100841.06;5014914;28;20531;-68
2023/07/12 02:49:50;;;;;;;20.02;6.95;;;;;;;14.90;100.00;100847.31;5014877;28;20030;-67
2023/07/12 02:52:16;;;;;;;20.35;6.43;;;;;;;14.80;100.00;100848.31;5014928;28;20030;-68
2023/07/12 02:54:42;;;;;;;20.20;6.60;;;;;;;14.75;100.00;100855.47;5014631;28;20096;-68
2023/07/12 02:57:10;;;;;;;19.25;6.60;;;;;;;14.68;100.00;100853.78;5014836;28;20034;-68
2023/07/12 02:59:36;;;;;;;18.50;6.50;;;;;;;14.66;100.00;100867.09;5010852;28;20101;-68
2023/07/12 03:02:03;;;;;;;19.33;6.32;;;;;;;14.62;100.00;100868.03;5014776;28;20038;-68
2023/07/12 03:04:28;;;;;;;18.80;6.10;;;;;;;14.59;100.00;100860.06;5014509;28;20030;-68
2023/07/12 03:06:54;;;;;;;19.10;6.13;;;;;;;14.59;100.00;100868.94;5014659;28;20036;-69
2023/07/12 03:09:19;;;;;;;19.13;6.20;;;;;;;14.60;100.00;100873.34;5014433;28;20376;-71
2023/07/12 03:11:46;;;;;;;20.58;6.10;;;;;;;14.56;100.00;100876.06;5014637;28;20026;-70
2023/07/12 03:14:16;;;;;;;18.50;6.30;;;;;;;14.62;100.00;100876.03;5014866;28;20372;-72
2023/07/12 03:16:42;;;;;;;19.50;5.90;;;;;;;14.62;100.00;100881.34;5014408;28;20040;-70
2023/07/12 03:19:07;;;;;;;19.08;6.35;;;;;;;14.66;100.00;100883.06;5014071;28;20422;-71
2023/07/12 03:21:33;;;;;;;17.15;5.30;;;;;;;14.57;100.00;100884.03;5014394;28;20030;-71
2023/07/12 03:23:58;;;;;;;18.88;5.63;;;;;;;14.55;100.00;100884.97;5014209;28;20026;-72
2023/07/12 03:26:24;;;;;;;17.58;5.30;;;;;;;14.60;100.00;100876.00;5014370;28;20084;-71
2023/07/12 03:28:49;;;;;;;18.05;5.20;;;;;;;14.59;100.00;100881.34;5014092;28;20096;-71
2023/07/12 03:31:16;;;;;;;18.92;5.60;;;;;;;14.56;100.00;100884.94;5013775;28;20057;-71
2023/07/12 03:33:44;;;;;;;17.83;5.43;;;;;;;14.54;100.00;100889.38;5014268;28;20396;-72
2023/07/12 03:36:10;;;;;;;17.08;5.20;;;;;;;14.57;100.00;100900.00;5014002;28;20034;-67
2023/07/12 03:38:35;;;;;;;16.95;5.40;;;;;;;14.58;100.00;100907.09;5014196;28;20081;-71
2023/07/12 03:41:03;;;;;;;18.35;5.90;;;;;;;14.62;100.00;100911.50;5013987;28;20037;-68
2023/07/12 03:43:29;;;;;;;18.50;5.57;;;;;;;14.62;100.00;100898.22;5014055;28;20053;-70
2023/07/12 03:45:54;;;;;;;17.42;5.78;;;;;;;14.56;100.00;100903.56;5013878;28;20072;-71
2023/07/12 03:48:20;;;;;;;18.00;6.10;;;;;;;14.51;100.00;100916.03;5013974;28;20041;-72
2023/07/12 03:50:47;;;;;;;20.00;6.35;;;;;;;14.51;100.00;100905.38;5013714;28;20026;-70
2023/07/12 03:53:14;;;;;;;21.15;6.88;;;;;;;14.46;100.00;100904.56;5013590;28;20038;-69
2023/07/12 03:55:41;;;;;;;20.25;6.63;;;;;;;14.51;100.00;100910.72;5013878;28;20036;-68
2023/07/12 03:58:08;;;;;;;19.58;6.47;;;;;;;14.51;100.00;100908.03;5009736;28;20029;-68
2023/07/12 04:00:33;;;;;;;18.98;6.68;;;;;;;14.47;100.00;100911.63;5013425;28;20548;-68
2023/07/12 04:02:58;;;;;;;18.42;6.97;;;;;;;14.46;100.00;100918.75;5013798;28;20080;-68
2023/07/12 04:05:24;;;;;;;19.42;6.80;;;;;;;14.48;100.00;100918.72;5013608;28;20125;-67
2023/07/12 04:07:51;;;;;;;19.55;6.90;;;;;;;14.53;100.00;100916.88;5013407;28;20079;-67
2023/07/12 04:10:16;;;;;;;20.55;7.20;;;;;;;14.48;100.00;100910.75;5013552;28;20034;-68
2023/07/12 04:12:41;;;;;;;20.05;7.07;;;;;;;14.47;100.00;100914.28;5013356;28;20029;-67
2023/07/12 04:15:07;;;;;;;21.27;7.22;;;;;;;14.47;100.00;100907.22;5013595;28;20034;-68
2023/07/12 04:17:33;;;;;;;19.80;7.22;;;;;;;14.49;100.00;100907.19;5013444;28;20393;-68
2023/07/12 04:19:58;;;;;;;20.42;7.47;;;;;;;14.35;100.00;100907.31;5013078;28;20045;-65
2023/07/12 04:22:24;;;;;;;19.10;7.10;;;;;;;14.33;100.00;100910.88;5013212;28;20030;-68
2023/07/12 04:24:50;;;;;;;20.08;7.22;;;;;;;14.35;100.00;100914.44;5013377;28;20053;-68
2023/07/12 04:27:16;;;;;;;19.75;7.40;;;;;;;14.39;100.00;100910.84;5013148;28;20065;-67
2023/07/12 04:29:42;;;;;;;20.15;7.50;;;;;;;14.44;100.00;100909.00;5013405;28;20072;-62
2023/07/12 04:32:07;;;;;;;19.85;7.07;;;;;;;14.54;100.00;100910.66;5012556;28;20050;-67
2023/07/12 04:34:33;;;;;;;20.85;7.13;;;;;;;14.48;100.00;100908.94;5012992;28;20080;-68
2023/07/12 04:36:58;;;;;;;20.48;7.00;;;;;;;14.47;100.00;100908.97;5013166;28;20034;-68
2023/07/12 04:39:23;;;;;;;20.08;6.65;;;;;;;14.50;100.00;100906.28;5012855;28;20040;-68
2023/07/12 04:41:49;;;;;;;19.40;5.90;;;;;;;14.56;100.00;100903.56;5012897;28;20030;-68
2023/07/12 04:44:14;;;;;;;19.23;6.03;;;;;;;14.56;100.00;100898.25;5013012;28;20033;-67
2023/07/12 04:46:39;;;;;;;18.20;5.70;;;;;;;14.54;100.00;100897.38;5012991;28;20030;-68
2023/07/12 04:49:05;;;;;;;18.42;5.75;;;;;;;14.52;100.00;100896.50;5012857;28;20034;-68
2023/07/12 04:51:30;;;;;;;18.52;5.78;;;;;;;14.46;100.00;100899.25;5012892;28;20087;-68
2023/07/12 04:53:56;;;;;;;19.75;6.05;;;;;;;14.43;100.00;100901.91;5013032;28;20026;-68
2023/07/12 04:56:21;;;;;;;19.90;5.85;;;;;;;14.41;100.00;100909.03;5012741;28;20041;-68
2023/07/12 04:58:47;;;;;;;19.55;5.85;;;;;;;14.45;100.00;100908.13;5012958;28;20033;-66
2023/07/12 05:01:13;;;;;;;18.15;5.50;;;;;;;14.45;100.00;100901.00;5012607;28;20037;-68
2023/07/12 05:03:38;;;;;;;20.35;5.70;;;;;;;14.47;100.00;100909.88;5012781;28;20026;-68
2023/07/12 05:06:04;;;;;;;19.55;5.40;;;;;;;14.52;100.00;100901.84;5013254;28;20496;-67
2023/07/12 05:08:29;;;;;;;20.77;5.95;;;;;;;14.56;100.00;100908.88;5012688;28;20068;-66
2023/07/12 05:10:59;;;;;;;18.08;5.55;;;;;;;14.59;100.00;100908.84;5012838;28;20034;-67
2023/07/12 05:13:24;;;;;;;18.98;5.70;;;;;;;14.67;100.00;100915.91;5012863;28;20049;-68
2023/07/12 05:15:52;;;;;;;18.42;5.60;;;;;;;14.76;100.00;100915.78;5012617;28;20034;-68
2023/07/12 05:18:18;;;;;;;20.20;5.60;;;;;;;14.92;100.00;100925.34;5012539;28;20109;-68
2023/07/12 05:20:43;;;;;;;18.95;5.32;;;;;;;15.07;100.00;100918.06;5012894;28;20362;-68
2023/07/12 05:23:08;;;;;;;18.08;5.45;;;;;;;15.13;100.00;100924.19;5012888;28;20041;-68
2023/07/12 05:25:34;;;;;;;19.45;5.40;;;;;;;15.21;100.00;100917.88;5009900;28;20549;-60
2023/07/12 05:28:02;;;;;;;18.13;5.45;;;;;;;15.22;100.00;100922.28;4999258;28;20035;-66
2023/07/12 05:30:27;;;;;;;19.40;5.40;;;;;;;15.27;100.00;100929.31;5001953;28;20022;-64
2023/07/12 05:32:53;;;;;;;18.65;5.45;;;;;;;15.30;100.00;100925.75;5001863;28;20092;-65
2023/07/12 05:35:18;;;;;;;19.58;5.55;;;;;;;15.27;100.00;100920.47;5009655;28;20025;-67
2023/07/12 05:37:43;;;;;;;20.00;5.70;;;;;;;15.24;100.00;100912.50;5011987;28;20077;-66
2023/07/12 05:40:09;;;;;;;19.52;5.53;;;;;;;15.24;100.00;100923.16;5003826;28;20026;-65
2023/07/12 05:42:40;;;;;;;18.83;5.90;;;;;;;15.26;100.00;100929.34;5004714;28;20034;-64
2023/07/12 05:45:06;;;;;;;18.90;5.78;;;;;;;15.25;100.00;100919.63;5006069;28;20044;-67
2023/07/12 05:47:31;;;;;;;19.58;5.80;;;;;;;15.29;100.00;100921.31;5005668;28;20038;-64
2023/07/12 05:49:57;;;;;;;18.40;5.13;;;;;;;15.35;100.00;100918.56;5007082;28;20065;-65
2023/07/12 05:52:22;;;;;;;20.77;5.35;;;;;;;15.37;100.00;100915.88;5014038;28;20084;-62
2023/07/12 05:54:47;;;;;;;19.58;5.32;;;;;;;15.40;100.00;100918.50;5015984;28;20385;-67
2023/07/12 05:57:13;;;;;;;18.15;5.28;;;;;;;15.46;100.00;100905.09;5015976;28;20481;-66
2023/07/12 05:59:39;;;;;;;18.38;5.53;;;;;;;15.51;100.00;100906.78;5015659;28;20104;-66
2023/07/12 06:02:06;;;;;;;18.02;5.30;;;;;;;15.57;100.00;100921.81;5015645;28;20037;-61
2023/07/12 06:04:31;;;;;;;19.63;5.30;;;;;;;15.68;100.00;100925.19;5015553;28;20049;-62
2023/07/12 06:06:57;;;;;;;17.92;5.07;;;;;;;15.76;100.00;100927.72;5015525;28;20033;-67
2023/07/12 06:09:22;;;;;;;18.35;5.15;;;;;;;15.85;100.00;100922.25;5015561;28;20432;-65
2023/07/12 06:11:48;;;;;;;20.13;5.75;;;;;;;15.86;100.00;100920.50;5015435;28;20026;-65
2023/07/12 06:14:13;;;;;;;19.30;5.80;;;;;;;15.91;100.00;100921.28;5015219;28;20030;-62
2023/07/12 06:16:39;;;;;;;20.27;5.65;;;;;;;16.04;100.00;100927.31;5015504;28;20034;-63
2023/07/12 06:19:04;;;;;;;18.00;5.30;;;;;;;16.03;100.00;100921.09;5015190;28;20030;-66
2023/07/12 06:21:30;;;;;;;18.48;5.43;;;;;;;16.10;100.00;100915.66;5015151;28;20030;-60
2023/07/12 06:23:58;;;;;;;19.80;6.20;;;;;;;16.15;100.00;100920.00;5015175;28;20026;-62
2023/07/12 06:26:23;;;;;;;18.48;6.10;;;;;;;16.31;100.00;100927.72;5015210;28;20469;-61
2023/07/12 06:28:48;;;;;;;19.80;6.10;;;;;;;16.52;100.00;100923.78;5015293;28;20030;-60
2023/07/12 06:31:14;;;;;;;18.45;5.45;;;;;;;16.65;100.00;100919.09;5014784;28;20092;-61
2023/07/12 06:33:40;;;;;;;19.42;5.82;;;;;;;16.67;100.00;100928.84;5014998;28;20470;-63
2023/07/12 06:36:06;;;;;;;18.60;5.82;;;;;;;16.82;100.00;100934.75;5002126;28;20044;-61
2023/07/12 06:38:31;;;;;;;18.35;5.72;;;;;;;16.96;100.00;100940.72;5010552;28;20030;-62
2023/07/12 06:40:57;;;;;;;20.45;5.90;;;;;;;16.85;100.00;100942.72;5010524;28;20397;-62
2023/07/12 06:43:24;;;;;;;18.52;5.47;;;;;;;16.74;100.00;100950.94;5014829;28;20481;-64
2023/07/12 06:45:50;;;;;;;17.88;5.40;;;;;;;16.80;100.00;100955.28;5014778;28;20393;-61
2023/07/12 06:48:16;;;;;;;16.90;4.97;;;;;;;16.88;100.00;100951.56;5014847;28;20030;-70
2023/07/12 06:50:41;;;;;;;18.75;5.07;;;;;;;16.96;100.00;100948.75;5014835;28;20026;-71
2023/07/12 06:53:07;;;;;;;19.13;5.38;;;;;;;16.91;100.00;100955.97;5013727;28;20053;-73
2023/07/12 06:55:32;;;;;;;18.48;5.28;;;;;;;17.00;100.00;100962.91;4996888;28;20026;-77
2023/07/12 06:57:57;;;;;;;18.42;4.93;;;;;;;16.97;100.00;100947.84;5014818;28;20030;-73
2023/07/12 07:00:23;;;;;;;17.20;4.82;;;;;;;16.96;100.00;100958.56;5014259;28;20061;-73
2023/07/12 07:02:48;;;;;;;16.60;4.50;;;;;;;16.98;100.00;100970.97;5014691;28;20033;-72
2023/07/12 07:05:13;;;;;;;17.05;4.45;;;;;;;16.97;100.00;100981.69;5014114;28;20062;-71
2023/07/12 07:07:39;;;;;;;17.27;4.68;;;;;;;16.95;100.00;100980.81;5014624;28;20029;-72
2023/07/12 07:10:05;;;;;;;17.75;4.57;;;;;;;16.95;100.00;100984.38;5014780;28;20124;-77
2023/07/12 07:12:30;;;;;;;19.85;4.90;;;;;;;16.99;100.00;100983.38;5014575;28;20041;-74
2023/07/12 07:14:56;;;;;;;18.02;4.90;;;;;;;17.03;100.00;100974.41;5014450;28;20385;-75
2023/07/12 07:17:21;;;;;;;18.38;4.70;;;;;;;17.21;100.00;100989.19;5014738;28;20040;-73
2023/07/12 07:19:46;;;;;;;18.40;5.10;;;;;;;17.25;100.00;100977.50;5014044;28;20109;-72
2023/07/12 07:22:12;;;;;;;15.57;4.95;;;;;;;17.42;100.00;100979.81;5014137;28;20034;-70
2023/07/12 07:24:37;;;;;;;17.98;5.00;;;;;;;17.52;100.00;100983.19;5013919;28;20030;-71
2023/07/12 07:27:03;;;;;;;19.33;5.18;;;;;;;17.71;100.00;100991.66;5012335;28;20026;-63
2023/07/12 07:29:29;;;;;;;19.67;4.97;;;;;;;17.82;100.00;100995.88;5006223;28;20033;-61
2023/07/12 07:31:54;;;;;;;17.10;5.03;;;;;;;17.83;100.00;100997.63;4990741;28;20054;-62
2023/07/12 07:34:19;;;;;;;18.33;5.13;;;;;;;17.98;100.00;100994.63;4984620;28;20053;-64
2023/07/12 07:36:45;;;;;;;19.98;4.97;;;;;;;18.03;100.00;101010.59;4985137;28;20038;-61
2023/07/12 07:39:10;;;;;;;17.27;4.88;;;;;;;17.91;100.00;101009.03;4983489;28;20080;-65
2023/07/12 07:41:36;;;;;;;18.42;5.32;;;;;;;17.88;100.00;101003.75;4991374;28;20073;-68
2023/07/12 07:44:02;;;;;;;19.38;5.00;;;;;;;17.96;100.00;101011.63;4994137;28;20034;-61
2023/07/12 07:46:27;;;;;;;18.77;4.80;;;;;;;18.10;100.00;101013.06;4990617;28;20030;-62
2023/07/12 07:48:53;;;;;;;18.42;4.97;;;;;;;18.25;100.00;101000.22;4994064;28;20378;-61
2023/07/12 07:51:18;;;;;;;17.95;5.03;;;;;;;18.28;100.00;101005.50;4993989;28;20057;-66
2023/07/12 07:53:44;;;;;;;16.58;4.63;;;;;;;18.52;100.00;101006.63;4996273;28;20038;-61
2023/07/12 07:56:11;;;;;;;16.75;4.78;;;;;;;18.66;100.00;101016.13;4993913;28;20073;-68
2023/07/12 07:58:36;;;;;;;17.73;4.80;;;;;;;18.76;100.00;101012.28;4994035;28;20038;-68
2023/07/12 08:01:02;;;;;;;18.02;4.82;;;;;;;18.89;100.00;101008.38;4993666;28;20070;-66
2023/07/12 08:03:29;;;;;;;18.98;4.70;;;;;;;18.93;100.00;101019.88;4993641;28;20026;-68
2023/07/12 08:06:03;;;;;;;17.58;5.22;;;;;;;18.82;100.00;101018.34;4985371;28;20039;-62
2023/07/12 08:08:29;;;;;;;17.38;4.95;;;;;;;18.74;100.00;101016.78;4990424;28;20109;-69
2023/07/12 08:10:55;;;;;;;18.75;5.05;;;;;;;18.67;100.00;101028.56;4993559;28;20600;-70
2023/07/12 08:13:20;;;;;;;20.08;5.55;;;;;;;18.63;100.00;101025.13;4990636;28;20027;-67
2023/07/12 08:15:46;;;;;;;18.13;5.40;;;;;;;18.66;100.00;101022.34;4989053;28;20501;-69
2023/07/12 08:18:12;;;;;;;19.67;5.40;;;;;;;18.53;100.00;101028.97;4991303;28;20113;-69
2023/07/12 08:20:40;;;;;;;17.58;5.20;;;;;;;18.50;100.00;101031.72;4982262;28;20039;-68
2023/07/12 08:23:08;;;;;;;17.05;5.20;;;;;;;18.50;100.00;101031.72;4984157;28;20471;-68
2023/07/12 08:25:34;;;;;;;16.48;5.03;;;;;;;18.64;100.00;101026.88;4989594;28;20026;-68
2023/07/12 08:27:59;;;;;;;20.15;5.35;;;;;;;18.61;100.00;101040.31;4993681;28;20026;-72
2023/07/12 08:30:24;;;;;;;18.83;5.28;;;;;;;18.57;100.00;101036.00;4993646;28;20030;-71
2023/07/12 08:32:50;;;;;;;19.65;5.07;;;;;;;18.75;100.00;101046.19;5012873;28;20049;-69
2023/07/12 08:35:15;;;;;;;17.88;5.35;;;;;;;18.68;100.00;101036.56;5012792;28;20038;-71
2023/07/12 08:37:40;;;;;;;18.50;5.18;;;;;;;18.81;100.00;101045.16;5012826;28;20137;-71
2023/07/12 08:40:06;;;;;;;18.75;5.70;;;;;;;19.07;100.00;101041.81;4995269;28;20048;-71
2023/07/12 08:42:42;;;;;;;18.90;5.70;;;;;;;19.04;100.00;101049.94;5012882;28;20366;-70
2023/07/12 08:45:27;;;;;;;19.30;5.65;;;;;;;19.23;100.00;101054.78;5006627;28;20056;-67
2023/07/12 08:47:58;;;;;;;17.35;5.78;;;;;;;19.38;100.00;101042.72;5003475;28;20026;-72
2023/07/12 08:50:25;;;;;;;21.05;5.60;;;;;;;19.33;100.00;101057.13;5009254;28;20101;-69
2023/07/12 08:52:51;;;;;;;20.88;5.85;;;;;;;19.16;100.00;101049.59;5008278;28;20022;-69
2023/07/12 08:55:19;;;;;;;17.75;5.78;;;;;;;18.96;100.00;101051.94;5012490;28;20045;-70
2023/07/12 08:57:50;;;;;;;18.48;5.90;;;;;;;18.88;100.00;101054.81;5012679;28;20037;-72
2023/07/12 09:00:21;;;;;;;18.20;5.90;;;;;;;19.00;100.00;101056.28;5012588;28;20038;-72
2023/07/12 09:02:46;;;;;;;21.08;5.95;;;;;;;19.13;100.00;101057.72;5012791;28;20061;-71
2023/07/12 09:05:16;;;;;;;19.00;5.97;;;;;;;19.14;100.00;101058.59;5012160;28;20473;-71
2023/07/12 09:07:47;;;;;;;19.70;5.90;;;;;;;19.21;100.00;101056.59;5012651;28;20037;-71
2023/07/12 09:10:51;;;;;;;19.55;5.45;;;;;;;19.38;100.00;101048.09;5010235;28;20080;-69
2023/07/12 09:13:17;;;;;;;19.45;5.57;;;;;;;19.72;100.00;101053.34;5005211;28;20034;-72
2023/07/12 09:15:49;;;;;;;18.60;5.68;;;;;;;20.15;100.00;101062.78;5008429;28;20057;-71
2023/07/12 09:18:23;;;;;;;;;;;;;;;20.26;100.00;101050.81;5015993;28;20112;-71
2023/07/12 09:20:50;;;;;;;16.30;4.53;;;;;;;20.03;100.00;101055.97;5016597;28;19971;-69
2023/07/12 09:23:16;;;;;;;16.85;4.75;;;;;;;20.15;100.00;101048.44;5016546;28;20037;-72
2023/07/12 09:25:47;;;;;;;19.42;5.20;;;;;;;19.99;100.00;101035.53;5016780;28;20370;-74
2023/07/12 09:28:14;;;;;;;17.65;5.25;;;;;;;20.26;100.00;101045.44;5016489;28;20034;-71
2023/07/12 09:30:39;;;;;;;18.73;5.70;;;;;;;20.65;100.00;101045.00;5015799;28;20416;-71
2023/07/12 09:33:06;;;;;;;18.35;5.45;;;;;;;20.80;100.00;101054.38;5016352;28;20034;-69
2023/07/12 09:35:41;;;;;;;18.80;5.65;;;;;;;20.59;100.00;101042.53;5015270;28;20149;-70
2023/07/12 09:38:16;;;;;;;18.23;5.15;;;;;;;20.45;100.00;101032.28;5008673;28;20474;-71
2023/07/12 09:40:48;;;;;;;18.50;5.35;;;;;;;20.41;100.00;101050.28;5005582;28;20046;-71
2023/07/12 09:43:22;;;;;;;18.10;5.57;;;;;;;20.54;100.00;101038.19;5006275;28;20026;-62
2023/07/12 09:46:25;;;;;;;17.73;5.40;;;;;;;20.61;100.00;101038.88;5007891;28;20116;-63
2023/07/12 09:49:04;;;;;;;18.77;4.90;;;;;;;20.04;100.00;101043.44;5013194;28;20121;-65
2023/07/12 09:51:45;;;;;;;18.33;5.28;;;;;;;20.02;100.00;101040.81;5015440;28;20025;-61
2023/07/12 09:54:33;;;;;;;18.50;5.18;;;;;;;20.54;100.00;101034.63;5015379;28;20029;-67
2023/07/12 09:57:00;;;;;;;17.85;4.88;;;;;;;20.73;100.00;101026.84;5015830;28;20047;-66
2023/07/12 09:59:35;;;;;;;16.75;4.57;;;;;;;20.92;100.00;101026.19;5015725;28;20643;-67
2023/07/12 10:02:38;;;;;;;17.20;4.75;;;;;;;21.46;100.00;101025.06;5011957;28;20377;-67
2023/07/12 10:05:21;;;;;;;17.98;4.40;;;;;;;22.05;100.00;101034.47;5012146;28;20378;-66
2023/07/12 10:07:53;;;;;;;15.30;4.15;;;;;;;21.68;100.00;101022.50;5007199;28;20494;-68
2023/07/12 10:10:28;;;;;;;15.80;4.10;;;;;;;22.72;91.46;101016.44;5005407;28;20429;-70
2023/07/12 10:13:06;;;;;;;15.65;3.70;;;;;;;24.43;75.83;101018.31;5005837;28;20050;-69
2023/07/12 10:15:35;;;;;;;17.15;3.72;;;;;;;24.46;65.80;101017.28;5004430;28;20030;-69
2023/07/12 10:18:03;;;;;;;14.52;3.80;;;;;;;23.85;71.27;101030.16;5007110;28;20489;-70
2023/07/12 10:20:29;;;;;;;15.05;3.70;;;;;;;23.23;76.73;101022.28;5007671;28;20034;-68
2023/07/12 10:22:56;;;;;;;16.38;3.80;;;;;;;24.01;71.48;101006.91;5016296;28;20079;-65
2023/07/12 10:25:26;;;;;;;16.70;3.42;;;;;;;25.58;63.59;101018.59;5014408;28;20064;-69
2023/07/12 10:27:59;;;;;;;14.65;3.50;;;;;;;26.07;60.32;101023.09;5020059;28;20110;-65
2023/07/12 10:30:26;;;;;;;13.02;3.20;;;;;;;26.29;55.59;101033.53;5013581;28;20022;-68
2023/07/12 10:32:59;;;;;;;13.70;3.30;;;;;;;27.18;54.10;101026.44;5015207;28;20072;-68
2023/07/12 10:35:49;;;;;;;11.75;3.28;;;;;;;26.01;54.65;101028.84;5015319;28;20068;-68
2023/07/12 10:38:17;;;;;;;13.40;3.40;;;;;;;25.45;57.57;101041.91;5014117;28;20030;-62
2023/07/12 10:41:07;;;;;;;15.02;3.42;;;;;;;26.02;57.23;101042.31;5015277;28;20079;-65
2023/07/12 10:43:35;;;;;;;15.40;3.33;;;;;;;26.30;57.20;101039.81;5012821;28;20116;-66
2023/07/12 10:46:13;;;;;;;14.30;3.60;;;;;;;26.51;55.61;101024.16;5015053;28;20497;-69
2023/07/12 10:48:44;;;;;;;17.02;3.20;;;;;;;27.51;54.63;101030.69;5015004;28;20087;-70
2023/07/12 10:51:33;;;;;;;13.43;3.17;;;;;;;27.59;51.77;101022.94;5012172;28;20106;-73
2023/07/12 10:53:59;;;;;;;12.57;3.10;;;;;;;26.37;52.04;101031.25;5010356;28;20030;-73
2023/07/12 10:56:26;;;;;;;15.70;3.40;;;;;;;25.53;55.41;101039.66;5012082;28;20032;-71
2023/07/12 10:59:32;;;;;;;12.57;3.28;;;;;;;25.74;56.50;101033.00;5014562;28;20041;-75
2023/07/12 11:02:03;;;;;;;12.63;3.08;;;;;;;27.09;54.89;101042.31;5014394;28;20096;-69
2023/07/12 11:04:34;;;;;;;13.55;3.13;;;;;;;26.53;52.11;101041.16;5014957;28;20068;-69
2023/07/12 11:07:02;;;;;;;14.77;3.33;;;;;;;27.35;50.44;101022.66;5014398;28;20036;-70
2023/07/12 11:09:42;;;;;;;16.15;3.53;;;;;;;26.45;51.50;101039.78;5013836;28;20481;-69
2023/07/12 11:12:09;;;;;;;13.85;3.53;;;;;;;26.46;50.71;101021.72;5014136;28;20050;-70